Latest Weather Observations for Edinburgh

IDS60901

Issued at 3:41 pm CST Wednesday 27 May 2015 (issued every 10 minutes, with the page automatically refreshed every 10 minutes)

About weather observations | Map of Adelaide area stations | Latest observations for Adelaide area | Other Formats
Station Details ID: 023083 Name: EDINBURGH RAAF Lat: -34.71 Lon: 138.62 Height: 16.54 m
Data from the previous 72 hours. | See also: Recent months at Edinburgh
Date/Time
CST
Tmp

°C
App
Tmp
°C
Dew
Point
°C
Rel
Hum
%
Delta-T

°C
Wind Press
QNH
hPa
Press
MSL
hPa
Rain
since
9 am
mm
Dir
 
Spd
km/h
Gust
km/h
Spd
kts
Gust
kts
27/03:30pm 18.8 17.2 11.6 63 3.9 WSW 11 15 6 8 1019.2 1019.2 0.2
27/03:00pm 19.6 18.9 13.1 66 3.7 NW 9 15 5 8 1019.1 1019.1 0.2
27/02:30pm 19.2 18.7 12.5 65 3.7 W 7 11 4 6 1019.1 1019.1 0.2
27/02:00pm 18.8 17.4 12.3 66 3.6 W 11 17 6 9 1019.3 1019.3 0.2
27/01:30pm 18.4 16.3 12.4 68 3.3 W 15 22 8 12 1019.4 1019.4 0.2
27/01:00pm 18.3 15.2 12.1 67 3.4 W 20 26 11 14 1019.6 1019.6 0.0
27/12:30pm 18.7 16.2 12.2 66 3.6 WNW 17 20 9 11 1020.0 1020.0 0.0
27/12:00pm 18.1 15.4 11.7 66 3.5 W 17 20 9 11 1020.3 1020.3 0.0
27/11:30am 18.4 16.1 11.9 66 3.6 NW 15 20 8 11 1020.9 1020.9 0.0
27/11:00am 17.8 15.3 11.1 65 3.6 NNW 15 19 8 10 1021.3 1021.3 0.0
27/10:30am 17.1 15.3 10.9 67 3.3 N 11 17 6 9 1021.4 1021.4 0.0
27/10:00am 16.5 15.0 10.6 68 3.1 N 9 13 5 7 1021.5 1021.5 0.0
27/09:30am 16.1 15.0 9.8 66 3.3 NNE 6 11 3 6 1021.5 1021.5 0.0
27/09:00am 15.1 13.1 10.3 73 2.5 NE 11 17 6 9 1021.3 1021.3 0.0
27/08:30am 13.8 11.4 10.0 78 2.0 NE 13 17 7 9 1021.3 1021.3 0.0
27/08:00am 12.2 9.3 9.6 84 1.3 NE 15 17 8 9 1021.3 1021.3 0.0
27/07:30am 11.2 8.4 8.6 84 1.3 NE 13 13 7 7 1021.1 1021.1 0.0
27/07:00am 11.8 9.2 9.2 84 1.3 NNE 13 17 7 9 1020.8 1020.8 0.0
27/06:30am 12.1 9.4 9.1 82 1.5 NE 13 15 7 8 1020.6 1020.6 0.0
27/06:00am 12.3 10.1 9.3 82 1.5 NE 11 13 6 7 1020.5 1020.5 0.0
27/05:30am 12.8 11.1 10.0 83 1.4 NE 9 15 5 8 1020.5 1020.5 0.0
27/05:00am 12.0 10.6 9.7 86 1.2 NE 7 11 4 6 1020.4 1020.4 0.0
27/04:30am 11.6 9.8 9.5 87 1.1 NE 9 11 5 6 1020.1 1020.1 0.0
27/04:00am 11.8 10.1 9.7 87 1.1 NE 9 11 5 6 1020.0 1020.0 0.0
27/03:30am 12.3 10.8 10.4 88 1.0 NE 9 11 5 6 1020.2 1020.2 0.0
27/03:00am 11.5 9.6 9.1 85 1.2 ENE 9 11 5 6 1020.3 1020.3 0.0
27/02:30am 11.8 9.6 9.4 85 1.2 NE 11 11 6 6 1020.5 1020.5 0.0
27/02:00am 12.9 11.3 10.3 84 1.3 ENE 9 11 5 6 1020.8 1020.8 0.0
27/01:30am 12.9 10.6 10.6 86 1.2 NE 13 15 7 8 1020.7 1020.7 0.0
27/01:00am 13.0 10.7 10.5 85 1.3 NNE 13 17 7 9 1020.8 1020.8 0.0
27/12:30am 13.4 11.1 10.6 83 1.5 NE 13 15 7 8 1020.8 1020.8 0.0
27/12:00am 14.0 12.2 10.8 81 1.7 NE 11 15 6 8 1021.2 1021.2 0.0
 
Date/Time
CST
Tmp

°C
App
Tmp
°C
Dew
Point
°C
Rel
Hum
%
Delta-T

°C
Wind Press
QNH
hPa
Press
MSL
hPa
Rain
since
9 am
mm
Dir
 
Spd
km/h
Gust
km/h
Spd
kts
Gust
kts
26/11:30pm 14.1 13.0 10.5 79 1.9 ENE 7 9 4 5 1021.5 1021.5 0.0
26/11:00pm 14.3 12.8 10.5 78 2.0 ENE 9 11 5 6 1021.6 1021.6 0.0
26/10:30pm 14.1 12.6 10.7 80 1.8 NNE 9 11 5 6 1022.0 1022.0 0.0
26/10:00pm 14.2 12.4 11.0 81 1.7 N 11 15 6 8 1022.1 1022.1 0.0
26/09:30pm 14.1 12.8 11.3 83 1.5 NNE 9 11 5 6 1022.0 1022.0 0.0
26/09:00pm 15.4 14.6 11.6 78 2.0 NE 7 7 4 4 1021.9 1021.9 0.0
26/08:30pm 15.1 14.3 10.9 76 2.2 NE 6 9 3 5 1021.9 1021.9 0.0
26/08:00pm 15.0 14.1 10.8 76 2.2 NE 6 6 3 3 1021.8 1021.8 0.0
26/07:30pm 15.1 14.1 11.1 77 2.1 NE 7 9 4 5 1021.6 1021.6 0.0
26/07:00pm 15.3 14.3 11.1 76 2.2 NNE 7 9 4 5 1021.4 1021.4 0.0
26/06:30pm 15.1 15.1 11.1 77 2.1 N 2 7 1 4 1021.4 1021.4 0.0
26/06:00pm 15.8 16.0 10.6 71 2.7 CALM 0 0 0 0 1021.2 1021.2 0.0
26/05:30pm 17.0 16.5 9.4 61 3.9 SW 2 6 1 3 1021.1 1021.1 0.0
26/05:00pm 17.1 15.6 10.5 65 3.5 SW 9 11 5 6 1020.9 1020.9 0.0
26/04:30pm 17.7 15.9 11.0 65 3.6 SW 11 11 6 6 1021.0 1021.0 0.0
26/04:00pm 20.7 19.7 10.2 51 5.7 WSW 6 9 3 5 1020.9 1020.9 0.0
26/03:30pm 21.0 19.4 8.6 45 6.5 NW 7 11 4 6 1020.9 1020.9 0.0
26/03:00pm 21.0 19.9 10.5 51 5.7 NW 7 9 4 5 1021.0 1021.0 0.0
26/02:30pm 20.1 17.7 8.8 48 5.9 NNW 11 17 6 9 1021.4 1021.4 0.0
26/02:00pm 20.1 18.9 10.2 53 5.3 N 7 11 4 6 1021.6 1021.6 0.0
26/01:30pm 19.7 17.9 9.6 52 5.4 NNW 9 13 5 7 1022.2 1022.2 0.0
26/01:00pm 19.5 19.2 10.0 54 5.1 NW 2 11 1 6 1022.8 1022.8 0.0
26/12:30pm 19.1 17.0 9.9 55 4.9 NW 11 15 6 8 1023.3 1023.3 0.0
26/12:00pm 19.1 17.1 10.1 56 4.8 NNW 11 15 6 8 1023.8 1023.8 0.0
26/11:30am 18.7 16.5 9.2 54 5.0 NNW 11 13 6 7 1024.3 1024.3 0.0
26/11:00am 18.4 15.8 9.2 55 4.8 N 13 20 7 11 1024.7 1024.7 0.0
26/10:30am 18.9 17.1 9.4 54 5.0 N 9 13 5 7 1025.0 1025.0 0.0
26/10:00am 17.2 14.4 10.1 63 3.8 NNE 15 19 8 10 1025.3 1025.3 0.0
26/09:30am 16.5 14.9 10.1 66 3.4 NE 9 15 5 8 1025.4 1025.4 0.0
26/09:00am 15.1 14.0 10.5 74 2.4 NE 7 7 4 4 1025.5 1025.5 0.0
26/08:30am 14.0 12.3 10.0 77 2.1 NE 9 13 5 7 1025.5 1025.5 0.0
26/08:00am 13.3 12.1 9.4 77 2.0 NE 6 9 3 5 1025.4 1025.4 0.0
26/07:30am 12.5 10.6 9.1 80 1.7 NE 9 11 5 6 1025.2 1025.2 0.0
26/07:00am 12.1 10.2 8.9 81 1.6 NE 9 11 5 6 1025.1 1025.1 0.0
26/06:30am 11.8 9.8 8.6 81 1.6 NE 9 11 5 6 1025.3 1025.3 0.0
26/06:00am 12.6 11.7 9.1 79 1.8 NE 4 7 2 4 1025.2 1025.2 0.0
26/05:30am 12.9 11.6 9.2 78 1.9 NE 6 7 3 4 1025.2 1025.2 0.0
26/05:00am 12.2 10.3 9.0 81 1.6 NE 9 13 5 7 1025.3 1025.3 0.0
26/04:30am 12.6 10.4 9.4 81 1.6 NE 11 11 6 6 1025.4 1025.4 0.0
26/04:00am 12.4 10.2 9.2 81 1.6 ENE 11 13 6 7 1025.2 1025.2 0.0
26/03:30am 11.9 10.2 8.4 79 1.7 ENE 7 9 4 5 1025.4 1025.4 0.0
26/03:00am 13.8 11.4 8.6 71 2.6 ENE 11 15 6 8 1025.4 1025.4 0.0
26/02:30am 14.6 12.7 9.0 69 2.8 ENE 9 13 5 7 1025.7 1025.7 0.0
26/02:00am 14.3 13.0 9.1 71 2.6 NE 6 7 3 4 1026.2 1026.2 0.0
26/01:30am 13.7 12.8 9.4 75 2.2 NE 4 6 2 3 1026.4 1026.4 0.0
26/01:00am 14.4 12.6 9.4 72 2.6 NE 9 13 5 7 1026.3 1026.3 0.0
26/12:30am 15.1 13.6 9.2 68 3.0 NE 7 13 4 7 1026.3 1026.3 0.0
26/12:00am 16.0 13.2 8.5 61 3.8 E 13 19 7 10 1025.9 1025.9 0.0
 
Date/Time
CST
Tmp

°C
App
Tmp
°C
Dew
Point
°C
Rel
Hum
%
Delta-T

°C
Wind Press
QNH
hPa
Press
MSL
hPa
Rain
since
9 am
mm
Dir
 
Spd
km/h
Gust
km/h
Spd
kts
Gust
kts
25/11:30pm 14.9 11.6 9.5 70 2.8 NE 17 19 9 10 1026.4 1026.4 0.0
25/11:00pm 13.4 11.7 10.0 80 1.8 ENE 9 11 5 6 1027.1 1027.1 0.0
25/10:30pm 13.1 11.1 10.1 82 1.5 ENE 11 13 6 7 1027.2 1027.2 0.0
25/10:00pm 12.8 11.0 9.6 81 1.6 ENE 9 11 5 6 1027.1 1027.1 0.0
25/09:30pm 13.0 11.7 9.8 81 1.6 ENE 7 9 4 5 1027.0 1027.0 0.0
25/09:00pm 12.5 11.1 9.7 83 1.4 E 7 9 4 5 1027.3 1027.3 0.0
25/08:30pm 12.5 12.4 9.5 82 1.5 CALM 0 0 0 0 1027.1 1027.1 0.0
25/08:00pm 13.2 12.3 9.3 77 2.0 E 4 7 2 4 1027.2 1027.2 0.0
25/07:30pm 13.1 11.6 9.2 77 2.0 E 7 9 4 5 1027.1 1027.1 0.0
25/07:00pm 14.0 13.2 9.6 75 2.3 ESE 4 7 2 4 1027.1 1027.1 0.0
25/06:30pm 13.3 13.1 9.0 75 2.2 CALM 0 0 0 0 1027.1 1027.1 0.0
25/06:00pm 14.1 13.1 8.7 70 2.7 SSE 4 6 2 3 1026.6 1026.6 0.0
25/05:30pm 13.8 12.0 9.5 75 2.2 SW 9 11 5 6 1026.4 1026.4 0.0
25/05:00pm 14.5 12.5 10.1 75 2.3 WSW 11 13 6 7 1026.3 1026.3 0.0
25/04:30pm 16.7 14.9 11.0 69 3.0 WSW 11 13 6 7 1025.8 1025.8 0.0
25/04:00pm 17.8 16.0 10.9 64 3.7 WSW 11 15 6 8 1025.7 1025.7 0.0
25/03:36pm 18.2 15.8 10.1 59 4.3 WSW 13 17 7 9 1025.6 1025.6 0.0
25/03:30pm 18.7 16.7 10.3 58 4.5 W 11 15 6 8 1025.6 1025.6 0.0
25/03:04pm 19.6 17.4 8.0 47 6.0 NW 9 13 5 7 1025.5 1025.5 0.0
25/03:00pm 19.8 18.3 9.1 50 5.6 NW 7 11 4 6 1025.5 1025.5 0.0
25/02:30pm 20.0 18.5 8.4 47 6.0 W 6 7 3 4 1025.9 1025.9 0.0
25/02:00pm 20.0 19.0 8.7 48 5.9 N 4 7 2 4 1025.9 1025.9 0.0
25/01:30pm 19.5 17.3 9.4 52 5.3 NNW 11 17 6 9 1026.2 1026.2 0.0
25/01:00pm 19.4 16.7 9.0 51 5.5 NNW 13 17 7 9 1026.3 1026.3 0.0
25/12:30pm 19.5 17.8 8.5 49 5.7 WNW 7 13 4 7 1026.5 1026.5 0.0
25/12:00pm 18.8 16.9 7.6 48 5.7 N 7 13 4 7 1027.1 1027.1 0.0
25/11:30am 18.5 16.1 8.7 53 5.1 N 11 15 6 8 1028.0 1028.0 0.0
25/11:00am 17.8 15.7 8.1 53 5.0 NNE 9 15 5 8 1028.6 1028.6 0.0
25/10:30am 17.1 15.0 8.3 56 4.5 NE 9 13 5 7 1029.0 1029.0 0.0
25/10:00am 16.3 14.3 8.5 60 4.0 NNE 9 13 5 7 1029.2 1029.2 0.0
25/09:30am 15.5 13.5 8.5 63 3.5 NNE 9 13 5 7 1029.4 1029.4 0.0
25/09:00am 14.2 12.2 8.6 69 2.8 NNE 9 11 5 6 1029.4 1029.4 0.0
25/08:30am 13.4 11.4 8.7 73 2.3 NNE 9 13 5 7 1029.3 1029.3 0.0
25/08:00am 11.7 10.1 8.7 82 1.5 NNE 7 7 4 4 1029.3 1029.3 0.0
25/07:30am 11.1 9.0 8.1 82 1.5 NNE 9 9 5 5 1029.2 1029.2 0.0
25/07:00am 10.9 9.0 7.6 80 1.6 NNE 7 9 4 5 1029.0 1029.0 0.0
25/06:30am 12.7 10.7 7.2 69 2.6 ENE 7 9 4 5 1028.5 1028.5 0.0
25/06:00am 12.9 10.9 7.1 68 2.8 ENE 7 9 4 5 1028.2 1028.2 0.0
25/05:30am 13.1 10.4 7.3 68 2.8 ENE 11 13 6 7 1028.0 1028.0 0.0
25/05:00am 12.2 9.6 7.9 75 2.1 NE 11 13 6 7 1027.8 1027.8 0.0
25/04:30am 11.7 9.4 7.6 76 2.0 ENE 9 11 5 6 1027.9 1027.9 0.0
25/04:00am 11.4 9.2 7.7 78 1.8 ENE 9 11 5 6 1027.9 1027.9 0.0
25/03:30am 12.3 9.9 7.0 70 2.5 ENE 9 11 5 6 1028.2 1028.2 0.0
25/03:00am 12.2 10.2 6.9 70 2.5 ESE 7 9 4 5 1028.4 1028.4 0.0
25/02:30am 11.9 10.2 7.4 74 2.2 E 6 9 3 5 1028.5 1028.5 0.0
25/02:00am 11.5 9.8 7.6 77 1.9 ENE 6 7 3 4 1028.7 1028.7 0.0
25/01:30am 11.2 9.4 7.9 80 1.6 NE 7 9 4 5 1028.6 1028.6 0.0
25/01:00am 11.0 8.8 7.7 80 1.6 NE 9 11 5 6 1028.6 1028.6 0.0
25/12:30am 11.0 9.1 7.5 79 1.7 NE 7 9 4 5 1028.5 1028.5 0.0
25/12:00am 11.5 10.6 7.6 77 1.9 ENE 2 9 1 5 1028.7 1028.7 0.0
 
Date/Time
CST
Tmp

°C
App
Tmp
°C
Dew
Point
°C
Rel
Hum
%
Delta-T

°C
Wind Press
QNH
hPa
Press
MSL
hPa
Rain
since
9 am
mm
Dir
 
Spd
km/h
Gust
km/h
Spd
kts
Gust
kts
24/11:30pm 11.1 8.9 7.8 80 1.6 NNE 9 11 5 6 1028.8 1028.8 0.0
24/11:00pm 12.5 10.2 7.6 72 2.4 ENE 9 13 5 7 1028.4 1028.4 0.0
24/10:30pm 12.1 9.6 8.0 76 2.0 NE 11 13 6 7 1028.6 1028.6 0.0
24/10:00pm 12.4 9.4 7.9 74 2.2 NE 13 17 7 9 1028.8 1028.8 0.0
24/09:30pm 12.2 9.4 8.7 79 1.7 NE 13 15 7 8 1028.6 1028.6 0.0
24/09:00pm 11.8 9.8 8.6 81 1.6 N 9 11 5 6 1028.6 1028.6 0.0
24/08:30pm 12.1 10.0 8.4 78 1.8 NE 9 11 5 6 1028.3 1028.3 0.0
24/08:00pm 13.4 11.7 7.6 68 2.8 ESE 6 9 3 5 1028.0 1028.0 0.0
24/07:30pm 13.3 10.8 8.2 71 2.5 SE 11 15 6 8 1027.8 1027.8 0.0
24/07:00pm 12.8 10.8 8.7 76 2.0 ENE 9 11 5 6 1028.8 1028.8 0.0
24/06:30pm 12.6 11.0 8.7 77 1.9 N 7 7 4 4 1029.0 1029.0 0.0
24/06:00pm 13.4 12.1 9.1 75 2.2 N 6 7 3 4 1028.5 1028.5 0.0
24/05:30pm 13.0 11.6 8.9 76 2.0 N 6 7 3 4 1028.2 1028.2 0.0
24/05:00pm 14.3 12.8 8.5 68 2.9 N 6 7 3 4 1028.0 1028.0 0.0
24/04:30pm 14.5 13.1 8.7 68 2.9 N 6 7 3 4 1028.1 1028.1 0.0
24/04:00pm 14.9 13.6 9.1 68 3.0 N 6 9 3 5 1028.0 1028.0 0.0

Latest Capital City Observations: Canberra | Sydney | Melbourne | Brisbane | Adelaide | Perth | Hobart | Darwin

Other Formats:

Comma delimited format used in spreadsheet applications
http://www.bom.gov.au/fwo/IDS60901/IDS60901.95676.axf

JavaScript Object Notation format (JSON) in row-major order
http://www.bom.gov.au/fwo/IDS60901/IDS60901.95676.json